sensor_id;sensor_type;location;lat;lon;timestamp;temperature;humidity
21906;DHT22;11117;48.644;9.006;2023-12-07T00:01:05;2.40;99.90
21906;DHT22;11117;48.644;9.006;2023-12-07T00:03:31;2.60;99.90
21906;DHT22;11117;48.644;9.006;2023-12-07T00:05:57;2.90;99.90
21906;DHT22;11117;48.644;9.006;2023-12-07T00:08:22;2.50;99.90
21906;DHT22;11117;48.644;9.006;2023-12-07T00:10:48;2.50;99.90
21906;DHT22;11117;48.644;9.006;2023-12-07T00:13:14;2.70;99.90
21906;DHT22;11117;48.644;9.006;2023-12-07T00:15:39;2.90;99.90
21906;DHT22;11117;48.644;9.006;2023-12-07T00:18:05;2.70;99.90
21906;DHT22;11117;48.644;9.006;2023-12-07T00:20:31;2.90;99.90
21906;DHT22;11117;48.644;9.006;2023-12-07T00:22:56;3.00;99.90
21906;DHT22;11117;48.644;9.006;2023-12-07T00:25:22;2.80;99.90
21906;DHT22;11117;48.644;9.006;2023-12-07T00:27:48;2.70;99.90
21906;DHT22;11117;48.644;9.006;2023-12-07T00:30:14;2.90;99.90
21906;DHT22;11117;48.644;9.006;2023-12-07T00:32:39;2.90;99.90
21906;DHT22;11117;48.644;9.006;2023-12-07T00:35:05;3.10;99.90
21906;DHT22;11117;48.644;9.006;2023-12-07T00:37:31;3.10;99.90
21906;DHT22;11117;48.644;9.006;2023-12-07T00:39:56;3.30;99.90
21906;DHT22;11117;48.644;9.006;2023-12-07T00:42:22;3.30;99.90
21906;DHT22;11117;48.644;9.006;2023-12-07T00:44:49;3.40;99.90
21906;DHT22;11117;48.644;9.006;2023-12-07T00:47:14;3.40;99.90
21906;DHT22;11117;48.644;9.006;2023-12-07T00:49:40;3.50;99.90
21906;DHT22;11117;48.644;9.006;2023-12-07T00:52:05;3.60;99.90
21906;DHT22;11117;48.644;9.006;2023-12-07T00:54:35;3.10;99.90
21906;DHT22;11117;48.644;9.006;2023-12-07T00:57:01;2.90;99.90
21906;DHT22;11117;48.644;9.006;2023-12-07T00:59:26;2.70;99.90
21906;DHT22;11117;48.644;9.006;2023-12-07T01:01:52;2.40;99.90
21906;DHT22;11117;48.644;9.006;2023-12-07T01:04:17;2.40;99.90
21906;DHT22;11117;48.644;9.006;2023-12-07T01:06:43;2.30;99.90
21906;DHT22;11117;48.644;9.006;2023-12-07T01:09:08;2.20;99.90
21906;DHT22;11117;48.644;9.006;2023-12-07T01:11:34;2.30;99.90
21906;DHT22;11117;48.644;9.006;2023-12-07T01:13:59;2.50;99.90
21906;DHT22;11117;48.644;9.006;2023-12-07T01:16:25;2.70;99.90
21906;DHT22;11117;48.644;9.006;2023-12-07T01:18:50;2.90;99.90
21906;DHT22;11117;48.644;9.006;2023-12-07T01:21:16;2.90;99.90
21906;DHT22;11117;48.644;9.006;2023-12-07T01:23:41;2.70;99.90
21906;DHT22;11117;48.644;9.006;2023-12-07T01:26:07;2.90;99.90
21906;DHT22;11117;48.644;9.006;2023-12-07T01:28:33;3.10;99.90
21906;DHT22;11117;48.644;9.006;2023-12-07T01:30:58;2.90;99.90
21906;DHT22;11117;48.644;9.006;2023-12-07T01:33:23;3.10;99.90
21906;DHT22;11117;48.644;9.006;2023-12-07T01:35:49;3.20;99.90
21906;DHT22;11117;48.644;9.006;2023-12-07T01:38:15;3.00;99.90
21906;DHT22;11117;48.644;9.006;2023-12-07T01:40:40;2.90;99.90
21906;DHT22;11117;48.644;9.006;2023-12-07T01:43:06;2.70;99.90
21906;DHT22;11117;48.644;9.006;2023-12-07T01:45:31;2.10;99.90
21906;DHT22;11117;48.644;9.006;2023-12-07T01:47:57;2.10;99.90
21906;DHT22;11117;48.644;9.006;2023-12-07T01:50:22;2.00;99.90
21906;DHT22;11117;48.644;9.006;2023-12-07T01:52:54;1.90;99.90
21906;DHT22;11117;48.644;9.006;2023-12-07T01:55:21;1.90;99.90
21906;DHT22;11117;48.644;9.006;2023-12-07T01:57:47;2.10;99.90
21906;DHT22;11117;48.644;9.006;2023-12-07T02:00:13;2.10;99.90
21906;DHT22;11117;48.644;9.006;2023-12-07T02:02:39;2.30;99.90
21906;DHT22;11117;48.644;9.006;2023-12-07T02:05:06;2.50;99.90
21906;DHT22;11117;48.644;9.006;2023-12-07T02:07:34;2.50;99.90
21906;DHT22;11117;48.644;9.006;2023-12-07T02:09:59;2.50;99.90
21906;DHT22;11117;48.644;9.006;2023-12-07T02:12:25;2.60;99.90
21906;DHT22;11117;48.644;9.006;2023-12-07T02:14:52;2.70;99.90
21906;DHT22;11117;48.644;9.006;2023-12-07T02:17:24;2.80;99.90
21906;DHT22;11117;48.644;9.006;2023-12-07T02:22:31;2.70;99.90
21906;DHT22;11117;48.644;9.006;2023-12-07T02:25:08;2.80;99.90
21906;DHT22;11117;48.644;9.006;2023-12-07T02:30:00;2.90;99.90
21906;DHT22;11117;48.644;9.006;2023-12-07T02:32:26;3.00;99.90
21906;DHT22;11117;48.644;9.006;2023-12-07T02:34:51;3.00;99.90
21906;DHT22;11117;48.644;9.006;2023-12-07T02:37:19;3.00;99.90
21906;DHT22;11117;48.644;9.006;2023-12-07T02:39:46;3.00;99.90
21906;DHT22;11117;48.644;9.006;2023-12-07T02:42:13;2.90;99.90
21906;DHT22;11117;48.644;9.006;2023-12-07T02:44:39;3.00;99.90
21906;DHT22;11117;48.644;9.006;2023-12-07T02:47:05;2.60;99.90
21906;DHT22;11117;48.644;9.006;2023-12-07T02:49:34;2.40;99.90
21906;DHT22;11117;48.644;9.006;2023-12-07T02:52:00;2.40;99.90
21906;DHT22;11117;48.644;9.006;2023-12-07T02:54:25;2.50;99.90
21906;DHT22;11117;48.644;9.006;2023-12-07T02:56:51;2.60;99.90
21906;DHT22;11117;48.644;9.006;2023-12-07T02:59:16;2.60;99.90
21906;DHT22;11117;48.644;9.006;2023-12-07T03:01:42;2.60;99.90
21906;DHT22;11117;48.644;9.006;2023-12-07T03:04:07;2.70;99.90
21906;DHT22;11117;48.644;9.006;2023-12-07T03:06:33;2.70;99.90
21906;DHT22;11117;48.644;9.006;2023-12-07T03:08:58;2.50;99.90
21906;DHT22;11117;48.644;9.006;2023-12-07T03:11:24;2.50;99.90
21906;DHT22;11117;48.644;9.006;2023-12-07T03:13:50;2.60;99.90
21906;DHT22;11117;48.644;9.006;2023-12-07T03:16:15;2.70;99.90
21906;DHT22;11117;48.644;9.006;2023-12-07T03:18:41;2.70;99.90
21906;DHT22;11117;48.644;9.006;2023-12-07T03:21:06;2.80;99.90
21906;DHT22;11117;48.644;9.006;2023-12-07T03:23:32;2.80;99.90
21906;DHT22;11117;48.644;9.006;2023-12-07T03:25:57;2.80;99.90
21906;DHT22;11117;48.644;9.006;2023-12-07T03:28:23;2.80;99.90
21906;DHT22;11117;48.644;9.006;2023-12-07T03:30:48;2.70;99.90
21906;DHT22;11117;48.644;9.006;2023-12-07T03:33:14;2.70;99.90
21906;DHT22;11117;48.644;9.006;2023-12-07T03:35:40;2.50;99.90
21906;DHT22;11117;48.644;9.006;2023-12-07T03:38:06;2.40;99.90
21906;DHT22;11117;48.644;9.006;2023-12-07T03:40:31;2.40;99.90
21906;DHT22;11117;48.644;9.006;2023-12-07T03:42:57;2.30;99.90
21906;DHT22;11117;48.644;9.006;2023-12-07T03:45:23;2.20;99.90
21906;DHT22;11117;48.644;9.006;2023-12-07T03:47:48;2.10;99.90
21906;DHT22;11117;48.644;9.006;2023-12-07T03:50:14;1.70;99.90
21906;DHT22;11117;48.644;9.006;2023-12-07T03:52:39;1.50;99.90
21906;DHT22;11117;48.644;9.006;2023-12-07T03:55:05;1.30;99.90
21906;DHT22;11117;48.644;9.006;2023-12-07T03:57:31;1.00;99.90
21906;DHT22;11117;48.644;9.006;2023-12-07T03:59:56;0.70;99.90
21906;DHT22;11117;48.644;9.006;2023-12-07T04:02:22;0.60;99.90
21906;DHT22;11117;48.644;9.006;2023-12-07T04:04:47;0.60;99.90
21906;DHT22;11117;48.644;9.006;2023-12-07T04:07:13;0.40;99.90
21906;DHT22;11117;48.644;9.006;2023-12-07T04:09:38;0.30;99.90
21906;DHT22;11117;48.644;9.006;2023-12-07T04:12:04;0.20;99.90
21906;DHT22;11117;48.644;9.006;2023-12-07T04:14:35;0.10;99.90
21906;DHT22;11117;48.644;9.006;2023-12-07T04:17:01;0.10;99.90
21906;DHT22;11117;48.644;9.006;2023-12-07T04:19:26;0.20;99.90
21906;DHT22;11117;48.644;9.006;2023-12-07T04:21:52;0.10;99.90
21906;DHT22;11117;48.644;9.006;2023-12-07T04:24:17;0.10;99.90
21906;DHT22;11117;48.644;9.006;2023-12-07T04:26:43;0.10;99.90
21906;DHT22;11117;48.644;9.006;2023-12-07T04:29:08;0.10;99.90
21906;DHT22;11117;48.644;9.006;2023-12-07T04:31:34;0.20;99.90
21906;DHT22;11117;48.644;9.006;2023-12-07T04:33:59;0.20;99.90
21906;DHT22;11117;48.644;9.006;2023-12-07T04:36:25;0.20;99.90
21906;DHT22;11117;48.644;9.006;2023-12-07T04:38:50;0.30;99.90
21906;DHT22;11117;48.644;9.006;2023-12-07T04:41:16;0.30;99.90
21906;DHT22;11117;48.644;9.006;2023-12-07T04:43:41;0.10;99.90
21906;DHT22;11117;48.644;9.006;2023-12-07T04:46:07;0.00;99.90
21906;DHT22;11117;48.644;9.006;2023-12-07T04:48:32;0.00;99.90
21906;DHT22;11117;48.644;9.006;2023-12-07T04:50:58;0.00;99.90
21906;DHT22;11117;48.644;9.006;2023-12-07T04:53:23;0.10;99.90
21906;DHT22;11117;48.644;9.006;2023-12-07T04:55:49;0.10;99.90
21906;DHT22;11117;48.644;9.006;2023-12-07T04:58:14;0.10;99.90
21906;DHT22;11117;48.644;9.006;2023-12-07T05:00:41;0.20;99.90
21906;DHT22;11117;48.644;9.006;2023-12-07T05:03:07;0.10;99.90
21906;DHT22;11117;48.644;9.006;2023-12-07T05:05:32;0.00;99.90
21906;DHT22;11117;48.644;9.006;2023-12-07T05:07:58;0.10;99.90
21906;DHT22;11117;48.644;9.006;2023-12-07T05:10:23;0.20;99.90
21906;DHT22;11117;48.644;9.006;2023-12-07T05:12:49;0.30;99.90
21906;DHT22;11117;48.644;9.006;2023-12-07T05:15:14;0.40;99.90
21906;DHT22;11117;48.644;9.006;2023-12-07T05:17:40;0.40;99.90
21906;DHT22;11117;48.644;9.006;2023-12-07T05:20:06;0.50;99.90
21906;DHT22;11117;48.644;9.006;2023-12-07T05:22:31;0.40;99.90
21906;DHT22;11117;48.644;9.006;2023-12-07T05:24:57;0.20;99.90
21906;DHT22;11117;48.644;9.006;2023-12-07T05:27:23;0.20;99.90
21906;DHT22;11117;48.644;9.006;2023-12-07T05:29:48;0.10;99.90
21906;DHT22;11117;48.644;9.006;2023-12-07T05:32:14;0.10;99.90
21906;DHT22;11117;48.644;9.006;2023-12-07T05:34:39;0.00;99.90
21906;DHT22;11117;48.644;9.006;2023-12-07T05:37:05;0.10;99.90
21906;DHT22;11117;48.644;9.006;2023-12-07T05:39:32;0.20;99.90
21906;DHT22;11117;48.644;9.006;2023-12-07T05:41:58;0.30;99.90
21906;DHT22;11117;48.644;9.006;2023-12-07T05:44:23;0.30;99.90
21906;DHT22;11117;48.644;9.006;2023-12-07T05:46:49;0.40;99.90
21906;DHT22;11117;48.644;9.006;2023-12-07T05:49:15;0.40;99.90
21906;DHT22;11117;48.644;9.006;2023-12-07T05:51:41;0.40;99.90
21906;DHT22;11117;48.644;9.006;2023-12-07T05:54:06;0.40;99.90
21906;DHT22;11117;48.644;9.006;2023-12-07T05:56:32;0.40;99.90
21906;DHT22;11117;48.644;9.006;2023-12-07T05:58:57;0.40;99.90
21906;DHT22;11117;48.644;9.006;2023-12-07T06:01:23;0.40;99.90
21906;DHT22;11117;48.644;9.006;2023-12-07T06:03:48;0.50;99.90
21906;DHT22;11117;48.644;9.006;2023-12-07T06:06:14;0.50;99.90
21906;DHT22;11117;48.644;9.006;2023-12-07T06:08:40;0.50;99.90
21906;DHT22;11117;48.644;9.006;2023-12-07T06:11:06;0.50;99.90
21906;DHT22;11117;48.644;9.006;2023-12-07T06:13:31;0.50;99.90
21906;DHT22;11117;48.644;9.006;2023-12-07T06:15:57;0.50;99.90
21906;DHT22;11117;48.644;9.006;2023-12-07T06:18:22;0.50;99.90
21906;DHT22;11117;48.644;9.006;2023-12-07T06:20:48;0.60;99.90
21906;DHT22;11117;48.644;9.006;2023-12-07T06:23:13;0.50;99.90
21906;DHT22;11117;48.644;9.006;2023-12-07T06:25:39;0.50;99.90
21906;DHT22;11117;48.644;9.006;2023-12-07T06:28:05;0.50;99.90
21906;DHT22;11117;48.644;9.006;2023-12-07T06:30:30;0.50;99.90
21906;DHT22;11117;48.644;9.006;2023-12-07T06:32:56;0.40;99.90
21906;DHT22;11117;48.644;9.006;2023-12-07T06:35:22;0.30;99.90
21906;DHT22;11117;48.644;9.006;2023-12-07T06:37:47;0.40;99.90
21906;DHT22;11117;48.644;9.006;2023-12-07T06:40:13;0.40;99.90
21906;DHT22;11117;48.644;9.006;2023-12-07T06:42:38;0.40;99.90
21906;DHT22;11117;48.644;9.006;2023-12-07T06:45:04;0.50;99.90
21906;DHT22;11117;48.644;9.006;2023-12-07T06:47:30;0.40;99.90
21906;DHT22;11117;48.644;9.006;2023-12-07T06:49:55;0.20;99.90
21906;DHT22;11117;48.644;9.006;2023-12-07T06:52:21;0.10;99.90
21906;DHT22;11117;48.644;9.006;2023-12-07T06:54:47;0.00;99.90
21906;DHT22;11117;48.644;9.006;2023-12-07T06:57:13;-0.20;99.90
21906;DHT22;11117;48.644;9.006;2023-12-07T06:59:39;-0.30;99.90
21906;DHT22;11117;48.644;9.006;2023-12-07T07:02:05;-0.40;99.90
21906;DHT22;11117;48.644;9.006;2023-12-07T07:04:35;-0.50;99.90
21906;DHT22;11117;48.644;9.006;2023-12-07T07:07:00;-0.50;99.90
21906;DHT22;11117;48.644;9.006;2023-12-07T07:09:26;-0.50;99.90
21906;DHT22;11117;48.644;9.006;2023-12-07T07:11:51;-0.50;99.90
21906;DHT22;11117;48.644;9.006;2023-12-07T07:14:17;-0.60;99.90
21906;DHT22;11117;48.644;9.006;2023-12-07T07:16:43;-0.60;99.90
21906;DHT22;11117;48.644;9.006;2023-12-07T07:19:09;-0.70;99.90
21906;DHT22;11117;48.644;9.006;2023-12-07T07:21:35;-0.90;99.90
21906;DHT22;11117;48.644;9.006;2023-12-07T07:24:00;-0.90;99.90
21906;DHT22;11117;48.644;9.006;2023-12-07T07:26:26;-1.00;99.90
21906;DHT22;11117;48.644;9.006;2023-12-07T07:28:52;-1.00;99.90
21906;DHT22;11117;48.644;9.006;2023-12-07T07:31:18;-1.00;99.90
21906;DHT22;11117;48.644;9.006;2023-12-07T07:33:44;-1.00;99.90
21906;DHT22;11117;48.644;9.006;2023-12-07T07:36:09;-0.70;99.90
21906;DHT22;11117;48.644;9.006;2023-12-07T07:38:35;-0.50;99.90
21906;DHT22;11117;48.644;9.006;2023-12-07T07:41:01;-0.30;99.90
21906;DHT22;11117;48.644;9.006;2023-12-07T07:43:26;-0.10;99.90
21906;DHT22;11117;48.644;9.006;2023-12-07T07:45:52;0.10;99.90
21906;DHT22;11117;48.644;9.006;2023-12-07T07:48:17;0.10;99.90
21906;DHT22;11117;48.644;9.006;2023-12-07T07:50:43;0.00;99.90
21906;DHT22;11117;48.644;9.006;2023-12-07T07:53:08;0.00;99.90
21906;DHT22;11117;48.644;9.006;2023-12-07T07:55:34;-0.10;99.90
21906;DHT22;11117;48.644;9.006;2023-12-07T07:57:59;0.00;99.90
21906;DHT22;11117;48.644;9.006;2023-12-07T08:00:25;0.10;99.90
21906;DHT22;11117;48.644;9.006;2023-12-07T08:02:50;0.20;99.90
21906;DHT22;11117;48.644;9.006;2023-12-07T08:05:16;0.30;99.90
21906;DHT22;11117;48.644;9.006;2023-12-07T08:07:41;0.30;99.90
21906;DHT22;11117;48.644;9.006;2023-12-07T08:10:07;0.30;99.90
21906;DHT22;11117;48.644;9.006;2023-12-07T08:12:33;0.30;99.90
21906;DHT22;11117;48.644;9.006;2023-12-07T08:14:58;0.40;99.90
21906;DHT22;11117;48.644;9.006;2023-12-07T08:17:24;0.60;99.90
21906;DHT22;11117;48.644;9.006;2023-12-07T08:19:50;0.70;99.90
21906;DHT22;11117;48.644;9.006;2023-12-07T08:22:16;0.90;99.90
21906;DHT22;11117;48.644;9.006;2023-12-07T08:24:41;0.90;99.90
21906;DHT22;11117;48.644;9.006;2023-12-07T08:27:07;0.90;99.90
21906;DHT22;11117;48.644;9.006;2023-12-07T08:29:35;0.90;99.90
21906;DHT22;11117;48.644;9.006;2023-12-07T08:32:01;0.90;99.90
21906;DHT22;11117;48.644;9.006;2023-12-07T08:34:26;0.80;99.90
21906;DHT22;11117;48.644;9.006;2023-12-07T08:36:52;0.70;99.90
21906;DHT22;11117;48.644;9.006;2023-12-07T08:39:17;0.60;99.90
21906;DHT22;11117;48.644;9.006;2023-12-07T08:41:43;0.60;99.90
21906;DHT22;11117;48.644;9.006;2023-12-07T08:44:08;0.50;99.90
21906;DHT22;11117;48.644;9.006;2023-12-07T08:46:34;0.60;99.90
21906;DHT22;11117;48.644;9.006;2023-12-07T08:49:00;0.70;99.90
21906;DHT22;11117;48.644;9.006;2023-12-07T08:51:25;1.00;99.90
21906;DHT22;11117;48.644;9.006;2023-12-07T08:53:51;1.30;99.90
21906;DHT22;11117;48.644;9.006;2023-12-07T08:56:17;1.60;99.90
21906;DHT22;11117;48.644;9.006;2023-12-07T08:58:42;1.80;99.90
21906;DHT22;11117;48.644;9.006;2023-12-07T09:01:08;2.10;99.90
21906;DHT22;11117;48.644;9.006;2023-12-07T09:03:33;2.30;99.90
21906;DHT22;11117;48.644;9.006;2023-12-07T09:06:00;2.20;99.90
21906;DHT22;11117;48.644;9.006;2023-12-07T09:08:26;2.30;99.90
21906;DHT22;11117;48.644;9.006;2023-12-07T09:10:51;2.50;99.90
21906;DHT22;11117;48.644;9.006;2023-12-07T09:13:18;2.30;99.90
21906;DHT22;11117;48.644;9.006;2023-12-07T09:15:43;2.20;99.90
21906;DHT22;11117;48.644;9.006;2023-12-07T09:18:09;2.10;99.90
21906;DHT22;11117;48.644;9.006;2023-12-07T09:20:35;2.40;99.90
21906;DHT22;11117;48.644;9.006;2023-12-07T09:23:00;2.70;99.90
21906;DHT22;11117;48.644;9.006;2023-12-07T09:25:26;2.70;99.90
21906;DHT22;11117;48.644;9.006;2023-12-07T09:27:51;2.90;99.90
21906;DHT22;11117;48.644;9.006;2023-12-07T09:30:17;3.10;99.90
21906;DHT22;11117;48.644;9.006;2023-12-07T09:32:42;3.40;99.90
21906;DHT22;11117;48.644;9.006;2023-12-07T09:35:09;3.70;99.90
21906;DHT22;11117;48.644;9.006;2023-12-07T09:37:34;3.80;99.90
21906;DHT22;11117;48.644;9.006;2023-12-07T09:40:01;3.90;99.90
21906;DHT22;11117;48.644;9.006;2023-12-07T09:42:26;4.10;99.90
21906;DHT22;11117;48.644;9.006;2023-12-07T09:44:52;4.10;99.90
21906;DHT22;11117;48.644;9.006;2023-12-07T09:47:18;4.30;99.90
21906;DHT22;11117;48.644;9.006;2023-12-07T09:49:43;4.50;99.90
21906;DHT22;11117;48.644;9.006;2023-12-07T09:52:10;4.50;99.90
21906;DHT22;11117;48.644;9.006;2023-12-07T09:54:40;4.60;99.90
21906;DHT22;11117;48.644;9.006;2023-12-07T09:57:06;4.70;99.90
21906;DHT22;11117;48.644;9.006;2023-12-07T09:59:35;4.70;99.90
21906;DHT22;11117;48.644;9.006;2023-12-07T10:02:01;4.90;99.90
21906;DHT22;11117;48.644;9.006;2023-12-07T10:04:26;5.00;99.90
21906;DHT22;11117;48.644;9.006;2023-12-07T10:06:52;5.10;99.90
21906;DHT22;11117;48.644;9.006;2023-12-07T10:09:18;5.30;99.90
21906;DHT22;11117;48.644;9.006;2023-12-07T10:11:44;5.40;99.90
21906;DHT22;11117;48.644;9.006;2023-12-07T10:14:10;5.50;99.90
21906;DHT22;11117;48.644;9.006;2023-12-07T10:16:36;5.50;99.90
21906;DHT22;11117;48.644;9.006;2023-12-07T10:19:19;5.60;99.90
21906;DHT22;11117;48.644;9.006;2023-12-07T10:21:45;5.70;99.90
21906;DHT22;11117;48.644;9.006;2023-12-07T10:24:10;5.90;99.90
21906;DHT22;11117;48.644;9.006;2023-12-07T10:26:37;5.90;99.90
21906;DHT22;11117;48.644;9.006;2023-12-07T10:29:06;6.00;99.90
21906;DHT22;11117;48.644;9.006;2023-12-07T10:31:32;6.00;99.90
21906;DHT22;11117;48.644;9.006;2023-12-07T10:33:59;6.00;99.90
21906;DHT22;11117;48.644;9.006;2023-12-07T10:36:25;6.00;99.90
21906;DHT22;11117;48.644;9.006;2023-12-07T10:38:51;6.10;99.90
21906;DHT22;11117;48.644;9.006;2023-12-07T10:41:18;6.20;99.90
21906;DHT22;11117;48.644;9.006;2023-12-07T10:43:48;6.30;99.90
21906;DHT22;11117;48.644;9.006;2023-12-07T10:46:15;6.40;99.90
21906;DHT22;11117;48.644;9.006;2023-12-07T10:48:40;6.30;99.90
21906;DHT22;11117;48.644;9.006;2023-12-07T10:51:08;6.30;99.90
21906;DHT22;11117;48.644;9.006;2023-12-07T10:53:40;6.40;99.90
21906;DHT22;11117;48.644;9.006;2023-12-07T10:56:10;6.40;99.90
21906;DHT22;11117;48.644;9.006;2023-12-07T10:58:36;6.50;99.90
21906;DHT22;11117;48.644;9.006;2023-12-07T11:01:03;6.60;99.90
21906;DHT22;11117;48.644;9.006;2023-12-07T11:03:29;6.60;99.90
21906;DHT22;11117;48.644;9.006;2023-12-07T11:05:55;6.60;99.90
21906;DHT22;11117;48.644;9.006;2023-12-07T11:08:43;6.70;99.90
21906;DHT22;11117;48.644;9.006;2023-12-07T11:13:48;6.80;99.90
21906;DHT22;11117;48.644;9.006;2023-12-07T11:16:14;6.70;99.90
21906;DHT22;11117;48.644;9.006;2023-12-07T11:18:40;6.50;99.90
21906;DHT22;11117;48.644;9.006;2023-12-07T11:21:06;6.70;99.90
21906;DHT22;11117;48.644;9.006;2023-12-07T11:23:32;6.70;99.90
21906;DHT22;11117;48.644;9.006;2023-12-07T11:25:57;6.50;99.90
21906;DHT22;11117;48.644;9.006;2023-12-07T11:28:36;6.80;99.90
21906;DHT22;11117;48.644;9.006;2023-12-07T11:31:03;6.80;99.90
21906;DHT22;11117;48.644;9.006;2023-12-07T11:33:29;6.80;99.90
21906;DHT22;11117;48.644;9.006;2023-12-07T11:36:13;6.90;99.90
21906;DHT22;11117;48.644;9.006;2023-12-07T11:41:43;6.70;99.90
21906;DHT22;11117;48.644;9.006;2023-12-07T11:44:10;6.70;99.90
21906;DHT22;11117;48.644;9.006;2023-12-07T11:46:37;6.70;99.90
21906;DHT22;11117;48.644;9.006;2023-12-07T11:49:03;6.70;99.90
21906;DHT22;11117;48.644;9.006;2023-12-07T11:51:29;6.70;99.90
21906;DHT22;11117;48.644;9.006;2023-12-07T11:53:55;6.80;99.90
21906;DHT22;11117;48.644;9.006;2023-12-07T11:56:20;6.50;99.90
21906;DHT22;11117;48.644;9.006;2023-12-07T11:58:46;6.60;99.90
21906;DHT22;11117;48.644;9.006;2023-12-07T12:01:12;6.60;99.90
21906;DHT22;11117;48.644;9.006;2023-12-07T12:03:37;6.60;99.90
21906;DHT22;11117;48.644;9.006;2023-12-07T12:06:05;6.30;99.90
21906;DHT22;11117;48.644;9.006;2023-12-07T12:08:31;5.90;99.90
21906;DHT22;11117;48.644;9.006;2023-12-07T12:10:57;5.60;99.90
21906;DHT22;11117;48.644;9.006;2023-12-07T12:13:27;5.70;99.90
21906;DHT22;11117;48.644;9.006;2023-12-07T12:15:53;5.80;99.90
21906;DHT22;11117;48.644;9.006;2023-12-07T12:18:18;6.20;99.90
21906;DHT22;11117;48.644;9.006;2023-12-07T12:20:45;6.10;99.90
21906;DHT22;11117;48.644;9.006;2023-12-07T12:23:10;6.30;99.90
21906;DHT22;11117;48.644;9.006;2023-12-07T12:25:36;6.30;99.90
21906;DHT22;11117;48.644;9.006;2023-12-07T12:28:03;6.30;99.90
21906;DHT22;11117;48.644;9.006;2023-12-07T12:30:30;6.40;99.90
21906;DHT22;11117;48.644;9.006;2023-12-07T12:32:56;6.40;99.90
21906;DHT22;11117;48.644;9.006;2023-12-07T12:35:23;6.20;99.90
21906;DHT22;11117;48.644;9.006;2023-12-07T12:37:49;6.40;99.90
21906;DHT22;11117;48.644;9.006;2023-12-07T12:40:16;6.40;99.90
21906;DHT22;11117;48.644;9.006;2023-12-07T12:42:44;6.40;99.90
21906;DHT22;11117;48.644;9.006;2023-12-07T12:45:10;6.30;99.90
21906;DHT22;11117;48.644;9.006;2023-12-07T12:47:35;6.50;99.90
21906;DHT22;11117;48.644;9.006;2023-12-07T12:50:02;6.50;99.90
21906;DHT22;11117;48.644;9.006;2023-12-07T12:52:28;6.60;99.90
21906;DHT22;11117;48.644;9.006;2023-12-07T12:54:55;6.50;99.90
21906;DHT22;11117;48.644;9.006;2023-12-07T12:57:21;6.70;99.90
21906;DHT22;11117;48.644;9.006;2023-12-07T12:59:47;6.90;99.90
21906;DHT22;11117;48.644;9.006;2023-12-07T13:02:13;6.90;99.90
21906;DHT22;11117;48.644;9.006;2023-12-07T13:04:38;6.80;99.90
21906;DHT22;11117;48.644;9.006;2023-12-07T13:07:04;6.70;99.90
21906;DHT22;11117;48.644;9.006;2023-12-07T13:09:35;6.70;99.90
21906;DHT22;11117;48.644;9.006;2023-12-07T13:12:00;6.70;99.90
21906;DHT22;11117;48.644;9.006;2023-12-07T13:14:26;6.80;99.90
21906;DHT22;11117;48.644;9.006;2023-12-07T13:16:51;6.80;99.90
21906;DHT22;11117;48.644;9.006;2023-12-07T13:19:17;6.60;99.90
21906;DHT22;11117;48.644;9.006;2023-12-07T13:21:43;6.50;99.90
21906;DHT22;11117;48.644;9.006;2023-12-07T13:24:08;6.60;99.90
21906;DHT22;11117;48.644;9.006;2023-12-07T13:26:34;6.60;99.90
21906;DHT22;11117;48.644;9.006;2023-12-07T13:28:59;6.60;99.90
21906;DHT22;11117;48.644;9.006;2023-12-07T13:31:25;6.60;99.90
21906;DHT22;11117;48.644;9.006;2023-12-07T13:33:50;6.70;99.90
21906;DHT22;11117;48.644;9.006;2023-12-07T13:36:16;6.80;99.90
21906;DHT22;11117;48.644;9.006;2023-12-07T13:38:42;6.70;99.90
21906;DHT22;11117;48.644;9.006;2023-12-07T13:41:07;6.70;99.90
21906;DHT22;11117;48.644;9.006;2023-12-07T13:43:33;6.80;99.90
21906;DHT22;11117;48.644;9.006;2023-12-07T13:45:58;6.80;99.90
21906;DHT22;11117;48.644;9.006;2023-12-07T13:48:24;6.80;99.90
21906;DHT22;11117;48.644;9.006;2023-12-07T13:50:49;6.70;99.90
21906;DHT22;11117;48.644;9.006;2023-12-07T13:53:15;6.70;99.90
21906;DHT22;11117;48.644;9.006;2023-12-07T13:55:41;6.80;99.90
21906;DHT22;11117;48.644;9.006;2023-12-07T13:58:06;6.80;99.90
21906;DHT22;11117;48.644;9.006;2023-12-07T14:00:33;6.80;99.90
21906;DHT22;11117;48.644;9.006;2023-12-07T14:02:59;6.80;99.90
21906;DHT22;11117;48.644;9.006;2023-12-07T14:05:24;6.70;99.90
21906;DHT22;11117;48.644;9.006;2023-12-07T14:07:50;6.70;99.90
21906;DHT22;11117;48.644;9.006;2023-12-07T14:10:15;6.70;99.90
21906;DHT22;11117;48.644;9.006;2023-12-07T14:12:41;6.70;99.90
21906;DHT22;11117;48.644;9.006;2023-12-07T14:15:07;6.60;99.90
21906;DHT22;11117;48.644;9.006;2023-12-07T14:17:33;6.40;99.90
21906;DHT22;11117;48.644;9.006;2023-12-07T14:19:59;6.50;99.90
21906;DHT22;11117;48.644;9.006;2023-12-07T14:22:24;6.50;99.90
21906;DHT22;11117;48.644;9.006;2023-12-07T14:24:50;6.40;99.90
21906;DHT22;11117;48.644;9.006;2023-12-07T14:27:16;6.10;99.90
21906;DHT22;11117;48.644;9.006;2023-12-07T14:29:41;6.00;99.90
21906;DHT22;11117;48.644;9.006;2023-12-07T14:32:07;5.90;99.90
21906;DHT22;11117;48.644;9.006;2023-12-07T14:34:35;5.80;99.90
21906;DHT22;11117;48.644;9.006;2023-12-07T14:37:00;5.80;99.90
21906;DHT22;11117;48.644;9.006;2023-12-07T14:39:26;5.80;99.90
21906;DHT22;11117;48.644;9.006;2023-12-07T14:41:51;5.70;99.90
21906;DHT22;11117;48.644;9.006;2023-12-07T14:44:18;5.70;99.90
21906;DHT22;11117;48.644;9.006;2023-12-07T14:46:44;5.70;99.90
21906;DHT22;11117;48.644;9.006;2023-12-07T14:49:14;5.70;99.90
21906;DHT22;11117;48.644;9.006;2023-12-07T14:51:40;5.60;99.90
21906;DHT22;11117;48.644;9.006;2023-12-07T14:54:06;5.50;99.90
21906;DHT22;11117;48.644;9.006;2023-12-07T14:56:32;5.40;99.90
21906;DHT22;11117;48.644;9.006;2023-12-07T14:58:58;5.40;99.90
21906;DHT22;11117;48.644;9.006;2023-12-07T15:01:24;5.30;99.90
21906;DHT22;11117;48.644;9.006;2023-12-07T15:03:49;5.10;99.90
21906;DHT22;11117;48.644;9.006;2023-12-07T15:06:15;5.10;99.90
21906;DHT22;11117;48.644;9.006;2023-12-07T15:08:40;5.00;99.90
21906;DHT22;11117;48.644;9.006;2023-12-07T15:11:06;4.90;99.90
21906;DHT22;11117;48.644;9.006;2023-12-07T15:13:31;4.80;99.90
21906;DHT22;11117;48.644;9.006;2023-12-07T15:15:57;4.70;99.90
21906;DHT22;11117;48.644;9.006;2023-12-07T15:18:22;4.60;99.90
21906;DHT22;11117;48.644;9.006;2023-12-07T15:20:48;4.60;99.90
21906;DHT22;11117;48.644;9.006;2023-12-07T15:23:14;4.50;99.90
21906;DHT22;11117;48.644;9.006;2023-12-07T15:25:39;4.50;99.90
21906;DHT22;11117;48.644;9.006;2023-12-07T15:28:05;4.30;99.90
21906;DHT22;11117;48.644;9.006;2023-12-07T15:30:30;4.10;99.90
21906;DHT22;11117;48.644;9.006;2023-12-07T15:32:56;4.00;99.90
21906;DHT22;11117;48.644;9.006;2023-12-07T15:35:21;4.00;99.90
21906;DHT22;11117;48.644;9.006;2023-12-07T15:37:47;4.00;99.90
21906;DHT22;11117;48.644;9.006;2023-12-07T15:40:12;3.90;99.90
21906;DHT22;11117;48.644;9.006;2023-12-07T15:42:39;3.90;99.90
21906;DHT22;11117;48.644;9.006;2023-12-07T15:45:06;3.90;99.90
21906;DHT22;11117;48.644;9.006;2023-12-07T15:47:31;3.80;99.90